createdAt,value
2019-04-20T00:00:21.713Z,1031.65
2019-04-20T00:01:28.079Z,1031.67
2019-04-20T00:02:23.498Z,1031.64
2019-04-20T00:03:23.695Z,1031.63
2019-04-20T00:04:26.980Z,1031.60
2019-04-20T00:05:21.864Z,1031.62
2019-04-20T00:06:21.894Z,1031.61
2019-04-20T00:07:24.591Z,1031.63
2019-04-20T00:08:26.503Z,1031.59
2019-04-20T00:09:26.552Z,1031.63
2019-04-20T00:10:24.341Z,1031.56
2019-04-20T00:11:29.798Z,1031.59
2019-04-20T00:12:34.349Z,1031.58
2019-04-20T00:13:33.158Z,1031.55
2019-04-20T00:14:26.323Z,1031.52
2019-04-20T00:15:22.159Z,1031.51
2019-04-20T00:16:23.114Z,1031.52
2019-04-20T00:17:22.221Z,1031.53
2019-04-20T00:18:26.881Z,1031.51
2019-04-20T00:19:31.336Z,1031.56
2019-04-20T00:20:26.495Z,1031.59
2019-04-20T00:21:22.652Z,1031.52
2019-04-20T00:22:24.614Z,1031.55
2019-04-20T00:23:29.334Z,1031.52
2019-04-20T00:24:27.320Z,1031.50
2019-04-20T00:25:25.460Z,1031.53
2019-04-20T00:26:43.938Z,1031.50
2019-04-20T00:27:47.157Z,1031.57
2019-04-20T00:28:39.790Z,1031.56
2019-04-20T00:29:39.401Z,1031.58
2019-04-20T00:30:45.987Z,1031.56
2019-04-20T00:31:35.142Z,1031.53
2019-04-20T00:32:37.641Z,1031.54
2019-04-20T00:33:38.851Z,1031.57
2019-04-20T00:34:29.459Z,1031.51
2019-04-20T00:35:23.085Z,1031.51
2019-04-20T00:36:24.039Z,1031.53
2019-04-20T00:37:23.350Z,1031.53
2019-04-20T00:38:26.135Z,1031.47
2019-04-20T00:39:23.788Z,1031.47
2019-04-20T00:40:23.678Z,1031.44
2019-04-20T00:41:24.138Z,1031.46
2019-04-20T00:42:32.438Z,1031.41
2019-04-20T00:43:28.319Z,1031.44
2019-04-20T00:44:28.630Z,1031.40
2019-04-20T00:45:27.234Z,1031.39
2019-04-20T00:46:30.542Z,1031.41
2019-04-20T00:47:34.204Z,1031.38
2019-04-20T00:48:33.745Z,1031.39
2019-04-20T00:49:41.342Z,1031.36
2019-04-20T00:50:40.380Z,1031.32
2019-04-20T00:51:43.308Z,1031.33
2019-04-20T00:52:35.304Z,1031.31
2019-04-20T00:53:31.519Z,1031.29
2019-04-20T00:54:24.277Z,1031.29
2019-04-20T00:55:23.359Z,1031.25
2019-04-20T00:56:24.461Z,1031.22
2019-04-20T00:57:34.676Z,1031.24
2019-04-20T00:58:28.822Z,1031.19
2019-04-20T00:59:36.816Z,1031.21
2019-04-20T01:00:42.575Z,1031.20
2019-04-20T01:01:46.225Z,1031.25
2019-04-20T01:02:37.224Z,1031.22
2019-04-20T01:03:39.184Z,1031.19
2019-04-20T01:04:42.054Z,1031.14
2019-04-20T01:05:46.695Z,1031.19
2019-04-20T01:06:42.355Z,1031.19
2019-04-20T01:07:32.871Z,1031.17
2019-04-20T01:08:23.745Z,1031.16
2019-04-20T01:09:24.594Z,1031.14
2019-04-20T01:10:28.367Z,1031.19
2019-04-20T01:11:32.025Z,1031.17
2019-04-20T01:12:26.779Z,1031.16
2019-04-20T01:13:26.652Z,1031.17
2019-04-20T01:14:35.826Z,1031.15
2019-04-20T01:15:36.321Z,1031.14
2019-04-20T01:16:35.424Z,1031.08
2019-04-20T01:17:24.016Z,1031.10
2019-04-20T01:18:24.057Z,1031.07
2019-04-20T01:19:24.073Z,1031.05
2019-04-20T01:20:26.510Z,1031.03
2019-04-20T01:21:27.082Z,1031.07
2019-04-20T01:22:27.318Z,1031.08
2019-04-20T01:23:31.256Z,1031.06
2019-04-20T01:24:33.092Z,1031.05
2019-04-20T01:25:30.072Z,1031.10
2019-04-20T01:26:25.775Z,1031.04
2019-04-20T01:27:38.807Z,1031.06
2019-04-20T01:28:38.474Z,1031.07
2019-04-20T01:29:32.446Z,1031.06
2019-04-20T01:30:32.342Z,1031.06
2019-04-20T01:31:33.682Z,1031.08
2019-04-20T01:32:35.982Z,1031.09
2019-04-20T01:33:36.813Z,1031.07
2019-04-20T01:34:39.297Z,1031.06
2019-04-20T01:35:40.846Z,1031.04
2019-04-20T01:36:40.618Z,1031.04
2019-04-20T01:37:36.480Z,1031.05
2019-04-20T01:38:42.737Z,1031.00
2019-04-20T01:39:33.022Z,1031.04
2019-04-20T01:40:25.360Z,1031.05
2019-04-20T01:41:24.728Z,1031.06
2019-04-20T01:42:25.482Z,1031.08
2019-04-20T01:43:24.835Z,1031.05
2019-04-20T01:44:31.679Z,1031.07
2019-04-20T01:45:29.288Z,1031.09
2019-04-20T01:46:27.990Z,1031.06
2019-04-20T01:47:32.253Z,1031.06
2019-04-20T01:48:30.152Z,1030.97
2019-04-20T01:49:27.760Z,1030.99
2019-04-20T01:50:28.405Z,1031.00
2019-04-20T01:51:30.667Z,1030.99
2019-04-20T01:52:28.769Z,1030.97
2019-04-20T01:53:44.094Z,1030.91
2019-04-20T01:54:48.485Z,1030.92
2019-04-20T01:55:42.570Z,1030.95
2019-04-20T01:56:37.385Z,1030.96
2019-04-20T01:57:33.015Z,1030.94
2019-04-20T01:58:40.790Z,1030.88
2019-04-20T01:59:38.542Z,1030.86
2019-04-20T02:00:32.775Z,1030.87
2019-04-20T02:01:29.688Z,1030.85
2019-04-20T02:02:26.658Z,1030.86
2019-04-20T02:03:31.090Z,1030.84
2019-04-20T02:04:30.943Z,1030.81
2019-04-20T02:05:32.073Z,1030.85
2019-04-20T02:06:27.359Z,1030.79
2019-04-20T02:07:31.533Z,1030.79
2019-04-20T02:08:29.086Z,1030.82
2019-04-20T02:09:28.014Z,1030.87
2019-04-20T02:10:33.277Z,1030.78
2019-04-20T02:11:30.943Z,1030.80
2019-04-20T02:12:30.677Z,1030.77
2019-04-20T02:13:32.999Z,1030.76
2019-04-20T02:14:34.217Z,1030.77
2019-04-20T02:15:32.643Z,1030.80
2019-04-20T02:16:34.935Z,1030.75
2019-04-20T02:17:33.103Z,1030.74
2019-04-20T02:18:39.018Z,1030.76
2019-04-20T02:19:37.881Z,1030.76
2019-04-20T02:20:44.344Z,1030.73
2019-04-20T02:21:38.662Z,1030.81
2019-04-20T02:22:44.739Z,1030.77
2019-04-20T02:23:35.681Z,1030.77
2019-04-20T02:24:26.004Z,1030.74
2019-04-20T02:25:26.980Z,1030.76
2019-04-20T02:26:26.124Z,1030.72
2019-04-20T02:27:35.562Z,1030.73
2019-04-20T02:28:53.642Z,1030.74
2019-04-20T02:29:53.346Z,1030.73
2019-04-20T02:32:11.879Z,1030.69
2019-04-20T02:33:13.991Z,1030.76
2019-04-20T02:33:58.062Z,1030.74
2019-04-20T02:36:00.651Z,1030.74
2019-04-20T02:37:21.046Z,1030.78
2019-04-20T02:39:59.935Z,1030.72
2019-04-20T02:40:58.837Z,1030.73
2019-04-20T02:45:58.053Z,1030.73
2019-04-20T02:47:14.480Z,1030.75
2019-04-20T02:49:07.752Z,1030.77
2019-04-20T02:50:02.642Z,1030.77
2019-04-20T02:50:59.503Z,1030.73
2019-04-20T02:52:04.565Z,1030.78
2019-04-20T02:53:06.200Z,1030.75
2019-04-20T02:54:14.048Z,1030.74
2019-04-20T02:55:04.128Z,1030.72
2019-04-20T02:56:17.442Z,1030.77
2019-04-20T02:59:25.378Z,1030.73
2019-04-20T03:00:05.709Z,1030.72
2019-04-20T03:00:55.482Z,1030.74
2019-04-20T03:01:45.305Z,1030.78
2019-04-20T03:02:43.052Z,1030.75
2019-04-20T03:03:35.469Z,1030.70
2019-04-20T03:04:37.039Z,1030.75
2019-04-20T03:05:40.687Z,1030.74
2019-04-20T03:06:39.796Z,1030.66
2019-04-20T03:07:41.101Z,1030.73
2019-04-20T03:08:53.239Z,1030.66
2019-04-20T03:09:45.734Z,1030.67
2019-04-20T03:10:52.655Z,1030.62
2019-04-20T03:12:00.601Z,1030.64
2019-04-20T03:12:50.675Z,1030.63
2019-04-20T03:13:48.768Z,1030.58
2019-04-20T03:14:44.737Z,1030.64
2019-04-20T03:15:48.532Z,1030.65
2019-04-20T03:16:45.447Z,1030.69
2019-04-20T03:17:51.053Z,1030.64
2019-04-20T03:18:45.567Z,1030.62
2019-04-20T03:19:42.560Z,1030.62
2019-04-20T03:20:56.441Z,1030.62
2019-04-20T03:21:51.391Z,1030.64
2019-04-20T03:23:12.765Z,1030.64
2019-04-20T03:23:52.771Z,1030.62
2019-04-20T03:24:50.027Z,1030.65
2019-04-20T03:25:49.305Z,1030.60
2019-04-20T03:26:47.740Z,1030.64
2019-04-20T03:27:42.441Z,1030.63
2019-04-20T03:28:42.937Z,1030.60
2019-04-20T03:29:46.986Z,1030.60
2019-04-20T03:31:26.827Z,1030.63
2019-04-20T03:32:15.071Z,1030.57
2019-04-20T03:34:15.129Z,1030.64
2019-04-20T03:36:03.775Z,1030.66
2019-04-20T03:36:53.525Z,1030.65
2019-04-20T03:37:48.546Z,1030.63
2019-04-20T03:38:48.278Z,1030.63
2019-04-20T03:39:42.957Z,1030.67
2019-04-20T03:40:40.164Z,1030.62
2019-04-20T03:41:34.957Z,1030.65
2019-04-20T03:42:28.873Z,1030.63
2019-04-20T03:43:28.767Z,1030.61
2019-04-20T03:44:31.184Z,1030.70
2019-04-20T03:45:39.193Z,1030.65
2019-04-20T03:46:36.687Z,1030.66
2019-04-20T03:47:38.439Z,1030.64
2019-04-20T03:48:41.586Z,1030.65
2019-04-20T03:49:57.151Z,1030.71
2019-04-20T03:50:51.074Z,1030.67
2019-04-20T03:51:51.218Z,1030.66
2019-04-20T03:52:51.412Z,1030.68
2019-04-20T03:53:49.997Z,1030.74
2019-04-20T03:54:41.263Z,1030.71
2019-04-20T03:55:44.818Z,1030.74
2019-04-20T03:56:49.443Z,1030.70
2019-04-20T03:57:52.927Z,1030.65
2019-04-20T03:58:47.236Z,1030.75
2019-04-20T03:59:48.725Z,1030.67
2019-04-20T04:00:45.776Z,1030.71
2019-04-20T04:02:07.490Z,1030.73
2019-04-20T04:03:06.139Z,1030.72
2019-04-20T04:03:53.457Z,1030.71
2019-04-20T04:04:53.697Z,1030.71
2019-04-20T04:05:46.138Z,1030.70
2019-04-20T04:06:39.289Z,1030.65
2019-04-20T04:07:38.079Z,1030.70
2019-04-20T04:08:36.425Z,1030.72
2019-04-20T04:09:39.878Z,1030.69
2019-04-20T04:10:47.899Z,1030.69
2019-04-20T04:11:43.476Z,1030.70
2019-04-20T04:12:36.471Z,1030.68
2019-04-20T04:13:29.259Z,1030.71
2019-04-20T04:14:30.408Z,1030.68
2019-04-20T04:15:29.646Z,1030.69
2019-04-20T04:16:38.383Z,1030.70
2019-04-20T04:17:33.852Z,1030.72
2019-04-20T04:18:35.418Z,1030.67
2019-04-20T04:19:33.648Z,1030.68
2019-04-20T04:20:38.785Z,1030.71
2019-04-20T04:21:45.784Z,1030.67
2019-04-20T04:22:47.652Z,1030.70
2019-04-20T04:23:44.427Z,1030.68
2019-04-20T04:24:40.980Z,1030.72
2019-04-20T04:25:43.802Z,1030.72
2019-04-20T04:26:44.161Z,1030.73
2019-04-20T04:27:48.022Z,1030.73
2019-04-20T04:28:43.788Z,1030.75
2019-04-20T04:29:47.148Z,1030.75
2019-04-20T04:30:42.800Z,1030.73
2019-04-20T04:31:59.916Z,1030.76
2019-04-20T04:33:09.057Z,1030.80
2019-04-20T04:33:55.808Z,1030.79
2019-04-20T04:34:48.889Z,1030.81
2019-04-20T04:35:47.906Z,1030.78
2019-04-20T04:36:49.945Z,1030.76
2019-04-20T04:37:47.096Z,1030.82
2019-04-20T04:38:53.519Z,1030.81
2019-04-20T04:39:49.270Z,1030.84
2019-04-20T04:40:58.996Z,1030.82
2019-04-20T04:41:56.014Z,1030.82
2019-04-20T04:42:52.292Z,1030.80
2019-04-20T04:43:49.937Z,1030.83
2019-04-20T04:44:43.524Z,1030.79
2019-04-20T04:45:31.937Z,1030.76
2019-04-20T04:46:34.857Z,1030.73
2019-04-20T04:47:30.507Z,1030.72
2019-04-20T04:48:35.748Z,1030.72
2019-04-20T04:49:36.113Z,1030.82
2019-04-20T04:50:31.844Z,1030.79
2019-04-20T04:51:42.658Z,1030.78
2019-04-20T04:52:43.160Z,1030.83
2019-04-20T04:53:44.285Z,1030.78
2019-04-20T04:54:43.528Z,1030.81
2019-04-20T04:55:41.959Z,1030.82
2019-04-20T04:56:31.734Z,1030.85
2019-04-20T04:57:30.640Z,1030.82
2019-04-20T04:58:31.908Z,1030.81
2019-04-20T04:59:31.712Z,1030.84
2019-04-20T05:00:33.946Z,1030.87
2019-04-20T05:01:33.739Z,1030.75
2019-04-20T05:02:40.450Z,1030.82
2019-04-20T05:03:44.880Z,1030.75
2019-04-20T05:04:59.074Z,1030.78
2019-04-20T05:05:50.419Z,1030.79
2019-04-20T05:06:45.778Z,1030.77
2019-04-20T05:07:46.655Z,1030.72
2019-04-20T05:08:38.635Z,1030.81
2019-04-20T05:09:31.803Z,1030.79
2019-04-20T05:10:31.070Z,1030.82
2019-04-20T05:11:32.041Z,1030.78
2019-04-20T05:12:33.540Z,1030.74
2019-04-20T05:13:37.075Z,1030.79
2019-04-20T05:14:40.571Z,1030.73
2019-04-20T05:15:46.205Z,1030.75
2019-04-20T05:16:55.257Z,1030.71
2019-04-20T05:17:52.429Z,1030.69
2019-04-20T05:19:10.422Z,1030.74
2019-04-20T05:19:52.990Z,1030.71
2019-04-20T05:20:54.591Z,1030.70
2019-04-20T05:21:58.747Z,1030.73
2019-04-20T05:22:51.310Z,1030.70
2019-04-20T05:23:42.399Z,1030.75
2019-04-20T05:24:48.446Z,1030.72
2019-04-20T05:25:56.997Z,1030.80
2019-04-20T05:26:58.288Z,1030.81
2019-04-20T05:27:51.267Z,1030.79
2019-04-20T05:28:45.078Z,1030.78
2019-04-20T05:29:34.953Z,1030.85
2019-04-20T05:30:33.578Z,1030.77
2019-04-20T05:31:42.392Z,1030.81
2019-04-20T05:32:44.064Z,1030.83
2019-04-20T05:33:58.302Z,1030.77
2019-04-20T05:35:02.446Z,1030.84
2019-04-20T05:35:54.744Z,1030.83
2019-04-20T05:36:50.598Z,1030.71
2019-04-20T05:38:01.241Z,1030.79
2019-04-20T05:38:54.348Z,1030.77
2019-04-20T05:39:50.645Z,1030.76
2019-04-20T05:40:50.279Z,1030.77
2019-04-20T05:41:48.569Z,1030.80
2019-04-20T05:42:52.511Z,1030.85
2019-04-20T05:43:46.836Z,1030.82
2019-04-20T05:44:56.902Z,1030.85
2019-04-20T05:45:45.356Z,1030.82
2019-04-20T05:46:53.256Z,1030.85
2019-04-20T05:47:48.251Z,1030.76
2019-04-20T05:48:53.235Z,1030.74
2019-04-20T05:49:51.258Z,1030.77
2019-04-20T05:50:52.832Z,1030.74
2019-04-20T05:52:15.357Z,1030.71
2019-04-20T05:52:56.283Z,1030.81
2019-04-20T05:53:52.030Z,1030.77
2019-04-20T05:54:57.401Z,1030.76
2019-04-20T05:55:49.290Z,1030.82
2019-04-20T05:56:50.154Z,1030.84
2019-04-20T05:57:56.561Z,1030.83
2019-04-20T05:58:49.425Z,1030.87
2019-04-20T05:59:59.459Z,1030.84
2019-04-20T06:00:55.068Z,1030.81
2019-04-20T06:01:59.143Z,1030.84
2019-04-20T06:02:53.943Z,1030.87
2019-04-20T06:03:49.006Z,1030.91
2019-04-20T06:05:59.344Z,1030.85
2019-04-20T06:06:54.948Z,1030.89
2019-04-20T06:07:56.584Z,1030.88
2019-04-20T06:08:56.377Z,1030.93
2019-04-20T06:09:54.671Z,1030.91
2019-04-20T06:10:56.222Z,1030.95
2019-04-20T06:12:07.496Z,1030.97
2019-04-20T06:12:52.984Z,1030.94
2019-04-20T06:13:47.220Z,1030.93
2019-04-20T06:14:48.307Z,1030.91
2019-04-20T06:15:58.015Z,1030.98
2019-04-20T06:17:00.159Z,1030.94
2019-04-20T06:17:52.746Z,1031.03
2019-04-20T06:18:50.782Z,1030.95
2019-04-20T06:19:58.251Z,1031.04
2019-04-20T06:21:00.404Z,1030.97
2019-04-20T06:21:57.946Z,1030.93
2019-04-20T06:22:57.443Z,1030.92
2019-04-20T06:23:56.673Z,1030.92
2019-04-20T06:25:10.059Z,1030.98
2019-04-20T06:26:11.073Z,1030.96
2019-04-20T06:27:56.910Z,1031.07
2019-04-20T06:28:46.194Z,1030.99
2019-04-20T06:29:52.482Z,1031.01
2019-04-20T06:30:48.045Z,1030.97
2019-04-20T06:31:53.360Z,1030.93
2019-04-20T06:32:59.434Z,1030.95
2019-04-20T06:34:09.143Z,1030.93
2019-04-20T06:34:55.859Z,1030.86
2019-04-20T06:36:07.473Z,1030.83
2019-04-20T06:38:00.610Z,1030.82
2019-04-20T06:39:02.026Z,1030.86
2019-04-20T06:39:54.381Z,1030.89
2019-04-20T06:42:06.569Z,1030.90
2019-04-20T06:42:56.667Z,1030.88
2019-04-20T06:44:06.491Z,1030.83
2019-04-20T06:44:48.147Z,1030.89
2019-04-20T06:46:07.100Z,1030.89
2019-04-20T06:47:02.858Z,1030.90
2019-04-20T06:47:57.798Z,1030.90
2019-04-20T06:48:59.002Z,1030.92
2019-04-20T06:49:52.977Z,1030.89
2019-04-20T06:50:52.751Z,1030.93
2019-04-20T06:51:58.929Z,1030.88
2019-04-20T06:52:54.278Z,1030.87
2019-04-20T06:53:49.611Z,1030.88
2019-04-20T06:54:54.100Z,1030.88
2019-04-20T06:55:57.709Z,1030.87
2019-04-20T06:56:55.729Z,1030.84
2019-04-20T06:57:56.348Z,1030.84
2019-04-20T06:59:02.231Z,1030.82
2019-04-20T06:59:56.490Z,1030.79
2019-04-20T07:00:58.353Z,1030.82
2019-04-20T07:02:02.976Z,1030.86
2019-04-20T07:02:53.926Z,1030.86
2019-04-20T07:04:18.740Z,1030.82
2019-04-20T07:05:07.119Z,1030.85
2019-04-20T07:06:06.433Z,1030.84
2019-04-20T07:07:02.349Z,1030.87
2019-04-20T07:08:05.892Z,1030.86
2019-04-20T07:09:00.620Z,1030.87
2019-04-20T07:11:02.218Z,1030.85
2019-04-20T07:11:58.097Z,1030.86
2019-04-20T07:12:49.536Z,1030.83
2019-04-20T07:13:43.503Z,1030.87
2019-04-20T07:14:48.735Z,1030.88
2019-04-20T07:15:49.342Z,1030.84
2019-04-20T07:18:57.680Z,1030.94
2019-04-20T07:19:50.033Z,1030.91
2019-04-20T07:22:12.326Z,1030.95
2019-04-20T07:23:09.747Z,1030.95
2019-04-20T07:24:04.732Z,1030.93
2019-04-20T07:24:56.855Z,1030.93
2019-04-20T07:26:01.875Z,1030.95
2019-04-20T07:26:59.076Z,1030.92
2019-04-20T07:28:02.925Z,1030.90
2019-04-20T07:28:59.038Z,1030.90
2019-04-20T07:29:56.533Z,1030.89
2019-04-20T07:30:56.924Z,1030.94
2019-04-20T07:31:48.695Z,1030.98
2019-04-20T07:32:58.341Z,1031.04
2019-04-20T07:33:57.150Z,1031.05
2019-04-20T07:34:55.648Z,1031.04
2019-04-20T07:35:58.022Z,1031.03
2019-04-20T07:37:09.857Z,1031.09
2019-04-20T07:39:02.128Z,1031.07
2019-04-20T07:39:59.763Z,1031.09
2019-04-20T07:40:56.207Z,1031.03
2019-04-20T07:42:01.820Z,1031.04
2019-04-20T07:42:55.144Z,1031.01
2019-04-20T07:44:04.682Z,1031.04
2019-04-20T07:45:01.023Z,1031.10
2019-04-20T07:45:55.920Z,1031.10
2019-04-20T07:47:01.518Z,1031.09
2019-04-20T07:48:01.362Z,1031.04
2019-04-20T07:48:54.039Z,1031.11
2019-04-20T07:49:56.757Z,1031.10
2019-04-20T07:50:49.818Z,1031.12
2019-04-20T07:51:40.427Z,1031.11
2019-04-20T07:52:47.608Z,1031.09
2019-04-20T07:54:08.858Z,1031.05
2019-04-20T07:55:22.541Z,1031.10
2019-04-20T07:55:58.164Z,1031.10
2019-04-20T07:56:53.936Z,1031.10
2019-04-20T07:57:51.118Z,1031.06
2019-04-20T07:58:45.957Z,1031.08
2019-04-20T07:59:55.949Z,1031.06
2019-04-20T08:01:08.071Z,1031.08
2019-04-20T08:02:08.442Z,1031.05
2019-04-20T08:03:06.287Z,1031.11
2019-04-20T08:04:06.735Z,1031.06
2019-04-20T08:04:56.256Z,1031.07
2019-04-20T08:05:48.693Z,1031.05
2019-04-20T08:06:45.558Z,1031.04
2019-04-20T08:07:47.484Z,1031.04
2019-04-20T08:08:53.118Z,1031.06
2019-04-20T08:09:49.230Z,1031.06
2019-04-20T08:10:54.452Z,1031.05
2019-04-20T08:12:07.797Z,1031.09
2019-04-20T08:13:01.945Z,1031.11
2019-04-20T08:13:59.016Z,1031.11
2019-04-20T08:15:03.536Z,1031.15
2019-04-20T08:16:00.893Z,1031.12
2019-04-20T08:18:13.644Z,1031.12
2019-04-20T08:18:55.107Z,1031.15
2019-04-20T08:19:58.100Z,1031.20
2019-04-20T08:20:58.449Z,1031.21
2019-04-20T08:21:59.140Z,1031.24
2019-04-20T08:23:01.846Z,1031.24
2019-04-20T08:23:57.024Z,1031.22
2019-04-20T08:24:59.257Z,1031.20
2019-04-20T08:25:49.429Z,1031.21
2019-04-20T08:26:45.330Z,1031.23
2019-04-20T08:27:37.965Z,1031.23
2019-04-20T08:28:47.365Z,1031.19
2019-04-20T08:29:54.061Z,1031.20
2019-04-20T08:30:56.150Z,1031.23
2019-04-20T08:31:56.311Z,1031.24
2019-04-20T08:32:53.923Z,1031.22
2019-04-20T08:34:07.681Z,1031.25
2019-04-20T08:34:59.233Z,1031.21
2019-04-20T08:36:01.265Z,1031.30
2019-04-20T08:36:57.319Z,1031.23
2019-04-20T08:38:22.129Z,1031.30
2019-04-20T08:39:24.141Z,1031.31
2019-04-20T08:40:05.425Z,1031.31
2019-04-20T08:41:00.498Z,1031.29
2019-04-20T08:42:00.456Z,1031.35
2019-04-20T08:43:10.865Z,1031.33
2019-04-20T08:44:03.045Z,1031.34
2019-04-20T08:45:04.156Z,1031.37
2019-04-20T08:46:01.823Z,1031.36
2019-04-20T08:47:13.208Z,1031.39
2019-04-20T08:48:09.841Z,1031.32
2019-04-20T08:49:02.944Z,1031.33
2019-04-20T08:50:03.553Z,1031.33
2019-04-20T08:50:57.582Z,1031.35
2019-04-20T08:53:12.361Z,1031.27
2019-04-20T08:53:56.328Z,1031.24
2019-04-20T08:55:03.731Z,1031.22
2019-04-20T08:55:54.003Z,1031.21
2019-04-20T08:56:45.205Z,1031.22
2019-04-20T08:57:39.956Z,1031.22
2019-04-20T08:58:39.167Z,1031.22
2019-04-20T08:59:40.260Z,1031.23
2019-04-20T09:00:48.783Z,1031.21
2019-04-20T09:01:40.876Z,1031.28
2019-04-20T09:02:41.274Z,1031.28
2019-04-20T09:03:51.525Z,1031.25
2019-04-20T09:04:48.942Z,1031.25
2019-04-20T09:05:48.978Z,1031.22
2019-04-20T09:06:52.247Z,1031.28
2019-04-20T09:07:53.957Z,1031.24
2019-04-20T09:08:50.861Z,1031.25
2019-04-20T09:10:06.437Z,1031.29
2019-04-20T09:10:55.972Z,1031.21
2019-04-20T09:12:13.751Z,1031.31
2019-04-20T09:12:54.172Z,1031.26
2019-04-20T09:13:46.624Z,1031.25
2019-04-20T09:14:41.284Z,1031.22
2019-04-20T09:15:40.418Z,1031.23
2019-04-20T09:16:47.933Z,1031.25
2019-04-20T09:17:47.494Z,1031.21
2019-04-20T09:18:48.013Z,1031.22
2019-04-20T09:19:52.757Z,1031.13
2019-04-20T09:20:51.794Z,1031.20
2019-04-20T09:21:48.154Z,1031.15
2019-04-20T09:22:49.444Z,1031.12
2019-04-20T09:24:00.166Z,1031.21
2019-04-20T09:25:01.463Z,1031.23
2019-04-20T09:26:02.359Z,1031.28
2019-04-20T09:26:57.268Z,1031.27
2019-04-20T09:27:48.519Z,1031.20
2019-04-20T09:28:56.034Z,1031.15
2019-04-20T09:29:58.123Z,1031.10
2019-04-20T09:30:52.222Z,1031.08
2019-04-20T09:31:52.115Z,1031.04
2019-04-20T09:32:56.701Z,1031.04
2019-04-20T09:34:00.409Z,1031.04
2019-04-20T09:35:00.117Z,1030.99
2019-04-20T09:35:54.931Z,1030.97
2019-04-20T09:36:51.597Z,1030.89
2019-04-20T09:38:00.256Z,1030.97
2019-04-20T09:38:53.133Z,1030.92
2019-04-20T09:40:03.388Z,1030.93
2019-04-20T09:40:55.459Z,1030.90
2019-04-20T09:41:58.946Z,1030.86
2019-04-20T09:42:40.634Z,1030.85
2019-04-20T09:43:41.074Z,1030.85
2019-04-20T09:44:46.085Z,1030.79
2019-04-20T09:45:47.387Z,1030.82
2019-04-20T09:46:46.282Z,1030.80
2019-04-20T09:47:46.119Z,1030.80
2019-04-20T09:48:49.121Z,1030.77
2019-04-20T09:49:51.815Z,1030.80
2019-04-20T09:51:05.043Z,1030.84
2019-04-20T09:51:59.741Z,1030.96
2019-04-20T09:52:57.008Z,1030.93
2019-04-20T09:53:50.581Z,1030.88
2019-04-20T09:54:56.459Z,1030.79
2019-04-20T09:55:57.734Z,1030.79
2019-04-20T09:57:07.514Z,1030.82
2019-04-20T09:57:58.656Z,1030.74
2019-04-20T09:59:03.719Z,1030.79
2019-04-20T09:59:57.723Z,1030.75
2019-04-20T10:00:54.129Z,1030.88
2019-04-20T10:01:46.836Z,1030.88
2019-04-20T10:02:42.836Z,1030.65
2019-04-20T10:03:41.394Z,1030.73
2019-04-20T10:04:41.787Z,1030.85
2019-04-20T10:05:41.464Z,1030.83
2019-04-20T10:06:41.525Z,1030.87
2019-04-20T10:07:42.599Z,1030.75
2019-04-20T10:08:50.644Z,1030.67
2019-04-20T10:09:44.841Z,1030.62
2019-04-20T10:10:43.811Z,1030.53
2019-04-20T10:11:43.699Z,1030.58
2019-04-20T10:12:41.918Z,1030.68
2019-04-20T10:13:41.772Z,1030.69
2019-04-20T10:14:42.721Z,1030.67
2019-04-20T10:15:41.850Z,1030.69
2019-04-20T10:16:42.048Z,1030.68
2019-04-20T10:17:41.926Z,1030.89
2019-04-20T10:18:47.176Z,1030.87
2019-04-20T10:19:44.503Z,1030.82
2019-04-20T10:20:43.569Z,1030.81
2019-04-20T10:21:42.083Z,1030.90
2019-04-20T10:22:42.579Z,1030.87
2019-04-20T10:23:42.845Z,1030.89
2019-04-20T10:24:42.435Z,1030.90
2019-04-20T10:25:42.621Z,1030.83
2019-04-20T10:26:42.774Z,1030.86
2019-04-20T10:27:43.586Z,1030.91
2019-04-20T10:28:43.630Z,1030.89
2019-04-20T10:29:43.772Z,1030.88
2019-04-20T10:30:42.435Z,1030.87
2019-04-20T10:31:49.131Z,1030.89
2019-04-20T10:32:45.579Z,1030.92
2019-04-20T10:33:43.697Z,1030.95
2019-04-20T10:34:42.587Z,1030.93
2019-04-20T10:35:43.591Z,1030.91
2019-04-20T10:36:43.726Z,1030.96
2019-04-20T10:37:42.699Z,1030.97
2019-04-20T10:38:42.735Z,1030.98
2019-04-20T10:39:42.772Z,1030.91
2019-04-20T10:40:54.103Z,1030.85
2019-04-20T10:41:49.111Z,1031.02
2019-04-20T10:42:43.982Z,1030.99
2019-04-20T10:43:42.936Z,1031.09
2019-04-20T10:44:43.050Z,1031.06
2019-04-20T10:45:43.002Z,1030.98
2019-04-20T10:46:43.041Z,1031.07
2019-04-20T10:47:43.207Z,1031.07
2019-04-20T10:48:48.026Z,1030.99
2019-04-20T10:49:43.154Z,1030.96
2019-04-20T10:50:43.202Z,1031.01
2019-04-20T10:51:43.975Z,1030.96
2019-04-20T10:52:43.672Z,1031.08
2019-04-20T10:53:44.489Z,1031.09
2019-04-20T10:54:44.687Z,1031.11
2019-04-20T10:55:43.400Z,1031.02
2019-04-20T10:56:43.607Z,1030.98
2019-04-20T10:57:43.833Z,1030.98
2019-04-20T10:58:43.525Z,1031.05
2019-04-20T10:59:43.747Z,1031.07
2019-04-20T11:00:44.036Z,1031.07
2019-04-20T11:01:43.642Z,1031.13
2019-04-20T11:02:45.851Z,1031.12
2019-04-20T11:03:44.845Z,1031.21
2019-04-20T11:04:44.395Z,1031.10
2019-04-20T11:05:44.655Z,1030.96
2019-04-20T11:06:44.822Z,1031.07
2019-04-20T11:07:44.333Z,1031.06
2019-04-20T11:08:44.614Z,1031.04
2019-04-20T11:09:44.818Z,1031.00
2019-04-20T11:10:55.444Z,1030.91
2019-04-20T11:11:44.211Z,1030.94
2019-04-20T11:12:44.312Z,1030.90
2019-04-20T11:13:45.518Z,1030.92
2019-04-20T11:14:45.624Z,1030.89
2019-04-20T11:15:44.376Z,1030.92
2019-04-20T11:16:44.572Z,1030.91
2019-04-20T11:17:45.658Z,1030.95
2019-04-20T11:18:45.193Z,1030.99
2019-04-20T11:19:45.304Z,1030.96
2019-04-20T11:20:45.621Z,1030.99
2019-04-20T11:21:44.498Z,1031.05
2019-04-20T11:22:44.538Z,1031.12
2019-04-20T11:23:44.579Z,1031.02
2019-04-20T11:24:45.800Z,1031.06
2019-04-20T11:25:44.660Z,1031.06
2019-04-20T11:26:45.099Z,1031.00
2019-04-20T11:27:45.985Z,1030.95
2019-04-20T11:28:46.134Z,1031.00
2019-04-20T11:29:44.827Z,1030.89
2019-04-20T11:30:46.062Z,1030.92
2019-04-20T11:31:49.484Z,1030.92
2019-04-20T11:32:46.211Z,1031.32
2019-04-20T11:33:45.876Z,1030.80
2019-04-20T11:34:45.396Z,1030.93
2019-04-20T11:35:46.492Z,1031.10
2019-04-20T11:36:45.465Z,1031.31
2019-04-20T11:37:45.149Z,1030.86
2019-04-20T11:38:45.190Z,1031.04
2019-04-20T11:39:45.412Z,1031.29
2019-04-20T11:40:45.276Z,1030.88
2019-04-20T11:41:45.705Z,1031.10
2019-04-20T11:42:45.668Z,1031.07
2019-04-20T11:43:45.395Z,1030.87
2019-04-20T11:44:46.730Z,1030.93
2019-04-20T11:45:46.745Z,1031.36
2019-04-20T11:46:45.521Z,1030.96
2019-04-20T11:47:45.566Z,1030.96
2019-04-20T11:48:45.602Z,1031.21
2019-04-20T11:49:45.850Z,1031.28
2019-04-20T11:50:45.692Z,1030.80
2019-04-20T11:51:45.763Z,1030.82
2019-04-20T11:52:48.139Z,1030.84
2019-04-20T11:53:46.100Z,1030.83
2019-04-20T11:54:46.323Z,1030.85
2019-04-20T11:55:46.586Z,1030.84
2019-04-20T11:56:47.286Z,1030.99
2019-04-20T11:57:47.088Z,1031.19
2019-04-20T11:58:47.077Z,1031.14
2019-04-20T11:59:47.139Z,1030.77
2019-04-20T12:00:56.069Z,1031.12
2019-04-20T12:01:51.910Z,1030.47
2019-04-20T12:02:48.556Z,1030.72
2019-04-20T12:03:56.405Z,1030.54
2019-04-20T12:04:54.314Z,1030.67
2019-04-20T12:05:52.998Z,1030.85
2019-04-20T12:06:46.632Z,1030.80
2019-04-20T12:07:46.942Z,1030.62
2019-04-20T12:08:47.063Z,1030.41
2019-04-20T12:09:47.325Z,1030.43
2019-04-20T12:10:49.283Z,1030.66
2019-04-20T12:12:00.791Z,1030.71
2019-04-20T12:12:49.389Z,1030.67
2019-04-20T12:13:46.896Z,1030.67
2019-04-20T12:14:46.706Z,1030.60
2019-04-20T12:15:47.695Z,1030.61
2019-04-20T12:16:47.835Z,1030.50
2019-04-20T12:17:47.358Z,1030.50
2019-04-20T12:18:46.862Z,1030.48
2019-04-20T12:19:48.001Z,1030.42
2019-04-20T12:20:47.143Z,1030.37
2019-04-20T12:21:47.496Z,1030.38
2019-04-20T12:22:48.182Z,1030.37
2019-04-20T12:23:48.569Z,1030.35
2019-04-20T12:24:47.878Z,1030.33
2019-04-20T12:25:48.039Z,1030.32
2019-04-20T12:26:47.210Z,1030.38
2019-04-20T12:27:51.303Z,1030.32
2019-04-20T12:28:47.609Z,1030.31
2019-04-20T12:29:47.905Z,1030.34